sensor_id;sensor_type;location;lat;lon;timestamp;temperature;humidity
52459;DHT22;38372;52.902;6.024;2023-01-28T00:01:10;2.60;99.90
52459;DHT22;38372;52.902;6.024;2023-01-28T00:03:36;2.60;99.90
52459;DHT22;38372;52.902;6.024;2023-01-28T00:06:08;2.60;99.90
52459;DHT22;38372;52.902;6.024;2023-01-28T00:08:34;2.60;99.90
52459;DHT22;38372;52.902;6.024;2023-01-28T00:11:01;2.50;99.90
52459;DHT22;38372;52.902;6.024;2023-01-28T00:13:28;2.50;99.90
52459;DHT22;38372;52.902;6.024;2023-01-28T00:15:59;2.50;99.90
52459;DHT22;38372;52.902;6.024;2023-01-28T00:18:26;2.50;99.90
52459;DHT22;38372;52.902;6.024;2023-01-28T00:21:03;2.50;99.90
52459;DHT22;38372;52.902;6.024;2023-01-28T00:23:33;2.50;99.90
52459;DHT22;38372;52.902;6.024;2023-01-28T00:26:00;2.50;99.90
52459;DHT22;38372;52.902;6.024;2023-01-28T00:28:26;2.50;99.90
52459;DHT22;38372;52.902;6.024;2023-01-28T00:30:52;2.40;99.90
52459;DHT22;38372;52.902;6.024;2023-01-28T00:33:18;2.50;99.90
52459;DHT22;38372;52.902;6.024;2023-01-28T00:35:44;2.50;99.90
52459;DHT22;38372;52.902;6.024;2023-01-28T00:38:10;2.50;99.90
52459;DHT22;38372;52.902;6.024;2023-01-28T00:40:36;2.50;99.90
52459;DHT22;38372;52.902;6.024;2023-01-28T00:43:02;2.50;99.90
52459;DHT22;38372;52.902;6.024;2023-01-28T00:45:28;2.50;99.90
52459;DHT22;38372;52.902;6.024;2023-01-28T00:47:54;2.50;99.90
52459;DHT22;38372;52.902;6.024;2023-01-28T00:50:20;2.40;99.90
52459;DHT22;38372;52.902;6.024;2023-01-28T00:52:46;2.40;99.90
52459;DHT22;38372;52.902;6.024;2023-01-28T00:55:13;2.40;99.90
52459;DHT22;38372;52.902;6.024;2023-01-28T00:57:39;2.40;99.90
52459;DHT22;38372;52.902;6.024;2023-01-28T01:00:05;2.40;99.90
52459;DHT22;38372;52.902;6.024;2023-01-28T01:02:32;2.40;99.90
52459;DHT22;38372;52.902;6.024;2023-01-28T01:04:58;2.40;99.90
52459;DHT22;38372;52.902;6.024;2023-01-28T01:07:28;2.40;99.90
52459;DHT22;38372;52.902;6.024;2023-01-28T01:10:10;2.30;99.90
52459;DHT22;38372;52.902;6.024;2023-01-28T01:12:37;2.30;99.90
52459;DHT22;38372;52.902;6.024;2023-01-28T01:15:05;2.30;99.90
52459;DHT22;38372;52.902;6.024;2023-01-28T01:17:36;2.30;99.90
52459;DHT22;38372;52.902;6.024;2023-01-28T01:20:04;2.30;99.90
52459;DHT22;38372;52.902;6.024;2023-01-28T01:22:35;2.30;99.90
52459;DHT22;38372;52.902;6.024;2023-01-28T01:25:01;2.30;99.90
52459;DHT22;38372;52.902;6.024;2023-01-28T01:27:29;2.30;99.90
52459;DHT22;38372;52.902;6.024;2023-01-28T01:29:55;2.20;99.90
52459;DHT22;38372;52.902;6.024;2023-01-28T01:32:21;2.20;99.90
52459;DHT22;38372;52.902;6.024;2023-01-28T01:34:47;2.30;99.90
52459;DHT22;38372;52.902;6.024;2023-01-28T01:37:13;2.30;99.90
52459;DHT22;38372;52.902;6.024;2023-01-28T01:39:39;2.20;99.90
52459;DHT22;38372;52.902;6.024;2023-01-28T01:42:07;2.20;99.90
52459;DHT22;38372;52.902;6.024;2023-01-28T01:47:16;2.20;99.90
52459;DHT22;38372;52.902;6.024;2023-01-28T01:49:43;2.20;99.90
52459;DHT22;38372;52.902;6.024;2023-01-28T01:52:14;2.20;99.90
52459;DHT22;38372;52.902;6.024;2023-01-28T01:54:45;2.20;99.90
52459;DHT22;38372;52.902;6.024;2023-01-28T01:57:16;2.20;99.90
52459;DHT22;38372;52.902;6.024;2023-01-28T01:59:44;2.20;99.90
52459;DHT22;38372;52.902;6.024;2023-01-28T02:02:11;2.20;99.90
52459;DHT22;38372;52.902;6.024;2023-01-28T02:04:40;2.20;99.90
52459;DHT22;38372;52.902;6.024;2023-01-28T02:07:07;2.20;99.90
52459;DHT22;38372;52.902;6.024;2023-01-28T02:09:35;2.20;99.90
52459;DHT22;38372;52.902;6.024;2023-01-28T02:12:09;2.20;99.90
52459;DHT22;38372;52.902;6.024;2023-01-28T02:14:41;2.20;99.90
52459;DHT22;38372;52.902;6.024;2023-01-28T02:17:07;2.20;99.90
52459;DHT22;38372;52.902;6.024;2023-01-28T02:19:55;2.20;99.90
52459;DHT22;38372;52.902;6.024;2023-01-28T02:22:47;2.20;99.90
52459;DHT22;38372;52.902;6.024;2023-01-28T02:35:06;2.10;99.90
52459;DHT22;38372;52.902;6.024;2023-01-28T02:37:26;2.10;99.90
52459;DHT22;38372;52.902;6.024;2023-01-28T02:39:57;2.10;99.90
52459;DHT22;38372;52.902;6.024;2023-01-28T02:42:29;2.10;99.90
52459;DHT22;38372;52.902;6.024;2023-01-28T02:44:56;2.10;99.90
52459;DHT22;38372;52.902;6.024;2023-01-28T02:47:22;2.10;99.90
52459;DHT22;38372;52.902;6.024;2023-01-28T02:50:14;2.10;99.90
52459;DHT22;38372;52.902;6.024;2023-01-28T02:52:59;2.10;99.90
52459;DHT22;38372;52.902;6.024;2023-01-28T02:56:06;2.10;99.90
52459;DHT22;38372;52.902;6.024;2023-01-28T02:58:43;2.00;99.90
52459;DHT22;38372;52.902;6.024;2023-01-28T03:04:02;2.10;99.90
52459;DHT22;38372;52.902;6.024;2023-01-28T03:06:36;2.00;99.90
52459;DHT22;38372;52.902;6.024;2023-01-28T03:09:07;2.00;99.90
52459;DHT22;38372;52.902;6.024;2023-01-28T03:14:34;2.00;99.90
52459;DHT22;38372;52.902;6.024;2023-01-28T03:17:34;2.10;99.90
52459;DHT22;38372;52.902;6.024;2023-01-28T03:20:21;2.10;99.90
52459;DHT22;38372;52.902;6.024;2023-01-28T03:23:10;2.10;99.90
52459;DHT22;38372;52.902;6.024;2023-01-28T03:25:57;2.10;99.90
52459;DHT22;38372;52.902;6.024;2023-01-28T03:28:45;2.10;99.90
52459;DHT22;38372;52.902;6.024;2023-01-28T03:31:29;2.10;99.90
52459;DHT22;38372;52.902;6.024;2023-01-28T03:34:14;2.10;99.90
52459;DHT22;38372;52.902;6.024;2023-01-28T03:36:58;2.10;99.90
52459;DHT22;38372;52.902;6.024;2023-01-28T03:39:27;2.10;99.90
52459;DHT22;38372;52.902;6.024;2023-01-28T03:42:04;2.10;99.90
52459;DHT22;38372;52.902;6.024;2023-01-28T03:44:30;2.10;99.90
52459;DHT22;38372;52.902;6.024;2023-01-28T03:47:15;2.00;99.90
52459;DHT22;38372;52.902;6.024;2023-01-28T03:49:44;2.10;99.90
52459;DHT22;38372;52.902;6.024;2023-01-28T03:52:24;2.10;99.90
52459;DHT22;38372;52.902;6.024;2023-01-28T03:54:50;2.10;99.90
52459;DHT22;38372;52.902;6.024;2023-01-28T03:57:23;2.10;99.90
52459;DHT22;38372;52.902;6.024;2023-01-28T03:59:49;2.10;99.90
52459;DHT22;38372;52.902;6.024;2023-01-28T04:02:16;2.10;99.90
52459;DHT22;38372;52.902;6.024;2023-01-28T04:04:42;2.10;99.90
52459;DHT22;38372;52.902;6.024;2023-01-28T04:07:09;2.10;99.90
52459;DHT22;38372;52.902;6.024;2023-01-28T04:09:36;2.10;99.90
52459;DHT22;38372;52.902;6.024;2023-01-28T04:12:03;2.00;99.90
52459;DHT22;38372;52.902;6.024;2023-01-28T04:14:29;2.00;99.90
52459;DHT22;38372;52.902;6.024;2023-01-28T04:16:55;2.00;99.90
52459;DHT22;38372;52.902;6.024;2023-01-28T04:19:22;2.10;99.90
52459;DHT22;38372;52.902;6.024;2023-01-28T04:21:48;2.10;99.90
52459;DHT22;38372;52.902;6.024;2023-01-28T04:24:15;2.10;99.90
52459;DHT22;38372;52.902;6.024;2023-01-28T04:26:41;2.10;99.90
52459;DHT22;38372;52.902;6.024;2023-01-28T04:29:07;2.10;99.90
52459;DHT22;38372;52.902;6.024;2023-01-28T04:31:33;2.10;99.90
52459;DHT22;38372;52.902;6.024;2023-01-28T04:33:59;2.10;99.90
52459;DHT22;38372;52.902;6.024;2023-01-28T04:36:25;2.10;99.90
52459;DHT22;38372;52.902;6.024;2023-01-28T04:38:51;2.10;99.90
52459;DHT22;38372;52.902;6.024;2023-01-28T04:41:18;2.10;99.90
52459;DHT22;38372;52.902;6.024;2023-01-28T04:43:43;2.10;99.90
52459;DHT22;38372;52.902;6.024;2023-01-28T04:46:09;2.10;99.90
52459;DHT22;38372;52.902;6.024;2023-01-28T04:48:35;2.10;99.90
52459;DHT22;38372;52.902;6.024;2023-01-28T04:51:04;2.10;99.90
52459;DHT22;38372;52.902;6.024;2023-01-28T04:53:30;2.10;99.90
52459;DHT22;38372;52.902;6.024;2023-01-28T04:55:56;2.10;99.90
52459;DHT22;38372;52.902;6.024;2023-01-28T04:58:22;2.10;99.90
52459;DHT22;38372;52.902;6.024;2023-01-28T05:00:56;2.10;99.90
52459;DHT22;38372;52.902;6.024;2023-01-28T05:03:23;2.10;99.90
52459;DHT22;38372;52.902;6.024;2023-01-28T05:05:49;2.10;99.90
52459;DHT22;38372;52.902;6.024;2023-01-28T05:08:15;2.00;99.90
52459;DHT22;38372;52.902;6.024;2023-01-28T05:10:41;2.00;99.90
52459;DHT22;38372;52.902;6.024;2023-01-28T05:13:07;2.00;99.90
52459;DHT22;38372;52.902;6.024;2023-01-28T05:15:33;2.00;99.90
52459;DHT22;38372;52.902;6.024;2023-01-28T05:17:59;2.00;99.90
52459;DHT22;38372;52.902;6.024;2023-01-28T05:20:25;2.00;99.90
52459;DHT22;38372;52.902;6.024;2023-01-28T05:22:51;2.00;99.90
52459;DHT22;38372;52.902;6.024;2023-01-28T05:25:17;2.00;99.90
52459;DHT22;38372;52.902;6.024;2023-01-28T05:27:42;2.00;99.90
52459;DHT22;38372;52.902;6.024;2023-01-28T05:30:09;2.00;99.90
52459;DHT22;38372;52.902;6.024;2023-01-28T05:32:35;2.00;99.90
52459;DHT22;38372;52.902;6.024;2023-01-28T05:35:00;2.00;99.90
52459;DHT22;38372;52.902;6.024;2023-01-28T05:37:26;2.00;99.90
52459;DHT22;38372;52.902;6.024;2023-01-28T05:39:52;2.00;99.90
52459;DHT22;38372;52.902;6.024;2023-01-28T05:42:18;2.00;99.90
52459;DHT22;38372;52.902;6.024;2023-01-28T05:44:45;1.90;99.90
52459;DHT22;38372;52.902;6.024;2023-01-28T05:47:11;2.00;99.90
52459;DHT22;38372;52.902;6.024;2023-01-28T05:49:37;2.00;99.90
52459;DHT22;38372;52.902;6.024;2023-01-28T05:52:03;1.90;99.90
52459;DHT22;38372;52.902;6.024;2023-01-28T05:54:28;1.90;99.90
52459;DHT22;38372;52.902;6.024;2023-01-28T05:56:54;1.90;99.90
52459;DHT22;38372;52.902;6.024;2023-01-28T05:59:20;1.90;99.90
52459;DHT22;38372;52.902;6.024;2023-01-28T06:01:45;1.90;99.90
52459;DHT22;38372;52.902;6.024;2023-01-28T06:04:11;1.90;99.90
52459;DHT22;38372;52.902;6.024;2023-01-28T06:06:37;1.90;99.90
52459;DHT22;38372;52.902;6.024;2023-01-28T06:09:03;1.90;99.90
52459;DHT22;38372;52.902;6.024;2023-01-28T06:11:29;1.90;99.90
52459;DHT22;38372;52.902;6.024;2023-01-28T06:13:54;1.90;99.90
52459;DHT22;38372;52.902;6.024;2023-01-28T06:16:20;1.90;99.90
52459;DHT22;38372;52.902;6.024;2023-01-28T06:18:46;1.90;99.90
52459;DHT22;38372;52.902;6.024;2023-01-28T06:21:12;1.80;99.90
52459;DHT22;38372;52.902;6.024;2023-01-28T06:23:37;1.80;99.90
52459;DHT22;38372;52.902;6.024;2023-01-28T06:26:03;1.80;99.90
52459;DHT22;38372;52.902;6.024;2023-01-28T06:28:29;1.80;99.90
52459;DHT22;38372;52.902;6.024;2023-01-28T06:30:55;1.80;99.90
52459;DHT22;38372;52.902;6.024;2023-01-28T06:33:21;1.80;99.90
52459;DHT22;38372;52.902;6.024;2023-01-28T06:35:47;1.80;99.90
52459;DHT22;38372;52.902;6.024;2023-01-28T06:38:13;1.80;99.90
52459;DHT22;38372;52.902;6.024;2023-01-28T06:40:39;1.80;99.90
52459;DHT22;38372;52.902;6.024;2023-01-28T06:43:05;1.80;99.90
52459;DHT22;38372;52.902;6.024;2023-01-28T06:45:32;1.80;99.90
52459;DHT22;38372;52.902;6.024;2023-01-28T06:47:58;1.80;99.90
52459;DHT22;38372;52.902;6.024;2023-01-28T06:50:23;1.80;99.90
52459;DHT22;38372;52.902;6.024;2023-01-28T06:52:49;1.80;99.90
52459;DHT22;38372;52.902;6.024;2023-01-28T06:55:15;1.80;99.90
52459;DHT22;38372;52.902;6.024;2023-01-28T06:57:41;1.80;99.90
52459;DHT22;38372;52.902;6.024;2023-01-28T07:00:09;1.70;99.90
52459;DHT22;38372;52.902;6.024;2023-01-28T07:02:36;1.70;99.90
52459;DHT22;38372;52.902;6.024;2023-01-28T07:05:03;1.50;99.90
52459;DHT22;38372;52.902;6.024;2023-01-28T07:07:28;1.50;99.90
52459;DHT22;38372;52.902;6.024;2023-01-28T07:09:54;1.40;99.90
52459;DHT22;38372;52.902;6.024;2023-01-28T07:12:20;1.30;99.90
52459;DHT22;38372;52.902;6.024;2023-01-28T07:14:46;1.20;99.90
52459;DHT22;38372;52.902;6.024;2023-01-28T07:17:11;1.20;99.90
52459;DHT22;38372;52.902;6.024;2023-01-28T07:19:37;1.20;99.90
52459;DHT22;38372;52.902;6.024;2023-01-28T07:22:03;1.10;99.90
52459;DHT22;38372;52.902;6.024;2023-01-28T07:24:29;1.10;99.90
52459;DHT22;38372;52.902;6.024;2023-01-28T07:26:55;1.10;99.90
52459;DHT22;38372;52.902;6.024;2023-01-28T07:29:21;1.20;99.90
52459;DHT22;38372;52.902;6.024;2023-01-28T07:31:47;1.20;99.90
52459;DHT22;38372;52.902;6.024;2023-01-28T07:34:13;1.20;99.90
52459;DHT22;38372;52.902;6.024;2023-01-28T07:36:38;1.10;99.90
52459;DHT22;38372;52.902;6.024;2023-01-28T07:39:05;1.10;99.90
52459;DHT22;38372;52.902;6.024;2023-01-28T07:41:32;1.10;99.90
52459;DHT22;38372;52.902;6.024;2023-01-28T07:43:58;1.10;99.90
52459;DHT22;38372;52.902;6.024;2023-01-28T07:46:24;1.10;99.90
52459;DHT22;38372;52.902;6.024;2023-01-28T07:48:49;1.10;99.90
52459;DHT22;38372;52.902;6.024;2023-01-28T07:51:15;1.10;99.90
52459;DHT22;38372;52.902;6.024;2023-01-28T07:53:41;1.10;99.90
52459;DHT22;38372;52.902;6.024;2023-01-28T07:56:07;1.00;99.90
52459;DHT22;38372;52.902;6.024;2023-01-28T07:58:33;0.90;99.90
52459;DHT22;38372;52.902;6.024;2023-01-28T08:01:00;0.80;99.90
52459;DHT22;38372;52.902;6.024;2023-01-28T08:03:26;0.70;99.90
52459;DHT22;38372;52.902;6.024;2023-01-28T08:05:54;0.70;99.90
52459;DHT22;38372;52.902;6.024;2023-01-28T08:08:21;0.60;99.90
52459;DHT22;38372;52.902;6.024;2023-01-28T08:10:47;0.60;99.90
52459;DHT22;38372;52.902;6.024;2023-01-28T08:13:14;0.50;99.90
52459;DHT22;38372;52.902;6.024;2023-01-28T08:15:40;0.50;99.90
52459;DHT22;38372;52.902;6.024;2023-01-28T08:18:08;0.40;99.90
52459;DHT22;38372;52.902;6.024;2023-01-28T08:20:34;0.40;99.90
52459;DHT22;38372;52.902;6.024;2023-01-28T08:23:19;0.40;99.90
52459;DHT22;38372;52.902;6.024;2023-01-28T08:25:46;0.50;99.90
52459;DHT22;38372;52.902;6.024;2023-01-28T08:28:12;0.70;99.90
52459;DHT22;38372;52.902;6.024;2023-01-28T08:30:38;0.90;99.90
52459;DHT22;38372;52.902;6.024;2023-01-28T08:33:06;1.20;99.90
52459;DHT22;38372;52.902;6.024;2023-01-28T08:35:33;1.50;99.90
52459;DHT22;38372;52.902;6.024;2023-01-28T08:38:00;1.90;99.90
52459;DHT22;38372;52.902;6.024;2023-01-28T08:40:27;2.50;99.90
52459;DHT22;38372;52.902;6.024;2023-01-28T08:42:53;3.00;99.90
52459;DHT22;38372;52.902;6.024;2023-01-28T08:45:21;3.40;99.90
52459;DHT22;38372;52.902;6.024;2023-01-28T08:47:51;3.80;99.90
52459;DHT22;38372;52.902;6.024;2023-01-28T08:50:19;4.40;99.90
52459;DHT22;38372;52.902;6.024;2023-01-28T08:52:46;4.70;99.90
52459;DHT22;38372;52.902;6.024;2023-01-28T08:55:12;4.60;99.90
52459;DHT22;38372;52.902;6.024;2023-01-28T08:57:38;4.70;99.90
52459;DHT22;38372;52.902;6.024;2023-01-28T09:00:05;5.10;99.90
52459;DHT22;38372;52.902;6.024;2023-01-28T09:02:31;5.80;99.90
52459;DHT22;38372;52.902;6.024;2023-01-28T09:04:58;6.50;99.90
52459;DHT22;38372;52.902;6.024;2023-01-28T09:07:24;7.10;99.90
52459;DHT22;38372;52.902;6.024;2023-01-28T09:09:50;7.50;99.90
52459;DHT22;38372;52.902;6.024;2023-01-28T09:12:15;7.70;99.90
52459;DHT22;38372;52.902;6.024;2023-01-28T09:14:41;7.30;99.90
52459;DHT22;38372;52.902;6.024;2023-01-28T09:17:07;6.40;99.90
52459;DHT22;38372;52.902;6.024;2023-01-28T09:19:33;5.80;99.90
52459;DHT22;38372;52.902;6.024;2023-01-28T09:21:59;6.00;99.90
52459;DHT22;38372;52.902;6.024;2023-01-28T09:24:24;6.90;99.90
52459;DHT22;38372;52.902;6.024;2023-01-28T09:26:50;8.00;99.90
52459;DHT22;38372;52.902;6.024;2023-01-28T09:29:16;8.60;99.90
52459;DHT22;38372;52.902;6.024;2023-01-28T09:31:42;9.20;99.90
52459;DHT22;38372;52.902;6.024;2023-01-28T09:34:09;9.70;99.90
52459;DHT22;38372;52.902;6.024;2023-01-28T09:36:34;9.90;99.90
52459;DHT22;38372;52.902;6.024;2023-01-28T09:39:01;10.10;99.90
52459;DHT22;38372;52.902;6.024;2023-01-28T09:41:35;10.30;99.90
52459;DHT22;38372;52.902;6.024;2023-01-28T09:46:49;10.60;99.90
52459;DHT22;38372;52.902;6.024;2023-01-28T09:49:23;11.00;99.90
52459;DHT22;38372;52.902;6.024;2023-01-28T09:51:53;11.50;99.90
52459;DHT22;38372;52.902;6.024;2023-01-28T09:57:16;12.50;99.90
52459;DHT22;38372;52.902;6.024;2023-01-28T09:59:44;12.80;99.90
52459;DHT22;38372;52.902;6.024;2023-01-28T10:07:41;12.10;99.90
52459;DHT22;38372;52.902;6.024;2023-01-28T10:10:37;11.70;99.90
52459;DHT22;38372;52.902;6.024;2023-01-28T10:13:36;11.20;99.90
52459;DHT22;38372;52.902;6.024;2023-01-28T10:16:18;11.20;99.90
52459;DHT22;38372;52.902;6.024;2023-01-28T10:19:27;11.40;99.90
52459;DHT22;38372;52.902;6.024;2023-01-28T10:22:18;11.80;99.90
52459;DHT22;38372;52.902;6.024;2023-01-28T10:25:02;11.40;99.90
52459;DHT22;38372;52.902;6.024;2023-01-28T10:27:32;10.60;99.90
52459;DHT22;38372;52.902;6.024;2023-01-28T10:30:07;9.70;99.90
52459;DHT22;38372;52.902;6.024;2023-01-28T10:32:50;9.00;99.90
52459;DHT22;38372;52.902;6.024;2023-01-28T10:35:16;8.50;99.90
52459;DHT22;38372;52.902;6.024;2023-01-28T10:37:42;8.90;99.90
52459;DHT22;38372;52.902;6.024;2023-01-28T10:40:15;9.80;99.90
52459;DHT22;38372;52.902;6.024;2023-01-28T10:42:41;10.70;99.90
52459;DHT22;38372;52.902;6.024;2023-01-28T10:45:24;11.60;99.90
52459;DHT22;38372;52.902;6.024;2023-01-28T10:47:59;12.20;99.90
52459;DHT22;38372;52.902;6.024;2023-01-28T10:50:28;12.50;99.90
52459;DHT22;38372;52.902;6.024;2023-01-28T10:52:56;12.70;99.90
52459;DHT22;38372;52.902;6.024;2023-01-28T10:55:23;12.50;99.90
52459;DHT22;38372;52.902;6.024;2023-01-28T10:57:50;12.40;99.90
52459;DHT22;38372;52.902;6.024;2023-01-28T11:00:29;13.00;99.90
52459;DHT22;38372;52.902;6.024;2023-01-28T11:02:56;13.50;99.90
52459;DHT22;38372;52.902;6.024;2023-01-28T11:05:24;14.00;99.90
52459;DHT22;38372;52.902;6.024;2023-01-28T11:08:13;14.20;99.90
52459;DHT22;38372;52.902;6.024;2023-01-28T11:10:40;13.60;98.40
52459;DHT22;38372;52.902;6.024;2023-01-28T11:16:11;11.80;99.60
52459;DHT22;38372;52.902;6.024;2023-01-28T11:18:45;11.10;99.90
52459;DHT22;38372;52.902;6.024;2023-01-28T11:21:25;10.60;99.90
52459;DHT22;38372;52.902;6.024;2023-01-28T11:26:29;9.70;99.90
52459;DHT22;38372;52.902;6.024;2023-01-28T11:28:57;9.30;99.90
52459;DHT22;38372;52.902;6.024;2023-01-28T11:31:23;8.90;99.90
52459;DHT22;38372;52.902;6.024;2023-01-28T11:33:56;8.70;99.90
52459;DHT22;38372;52.902;6.024;2023-01-28T11:36:25;8.60;99.90
52459;DHT22;38372;52.902;6.024;2023-01-28T11:38:52;8.40;99.90
52459;DHT22;38372;52.902;6.024;2023-01-28T11:41:32;8.10;99.90
52459;DHT22;38372;52.902;6.024;2023-01-28T11:44:00;8.00;99.90
52459;DHT22;38372;52.902;6.024;2023-01-28T11:46:38;7.80;99.90
52459;DHT22;38372;52.902;6.024;2023-01-28T11:49:27;7.80;99.90
52459;DHT22;38372;52.902;6.024;2023-01-28T11:52:24;7.60;99.90
52459;DHT22;38372;52.902;6.024;2023-01-28T12:01:02;7.40;99.90
52459;DHT22;38372;52.902;6.024;2023-01-28T12:03:40;7.40;99.90
52459;DHT22;38372;52.902;6.024;2023-01-28T12:06:21;7.30;99.90
52459;DHT22;38372;52.902;6.024;2023-01-28T12:17:54;7.00;99.90
52459;DHT22;38372;52.902;6.024;2023-01-28T12:20:41;7.00;99.90
52459;DHT22;38372;52.902;6.024;2023-01-28T12:23:24;7.10;99.90
52459;DHT22;38372;52.902;6.024;2023-01-28T12:37:03;7.00;99.90
52459;DHT22;38372;52.902;6.024;2023-01-28T12:42:39;7.40;99.90
52459;DHT22;38372;52.902;6.024;2023-01-28T12:45:17;7.40;99.90
52459;DHT22;38372;52.902;6.024;2023-01-28T12:48:01;7.10;99.90
52459;DHT22;38372;52.902;6.024;2023-01-28T12:50:42;7.10;99.90
52459;DHT22;38372;52.902;6.024;2023-01-28T12:56:11;6.90;99.90
52459;DHT22;38372;52.902;6.024;2023-01-28T12:58:47;6.90;99.90
52459;DHT22;38372;52.902;6.024;2023-01-28T13:01:41;6.80;99.90
52459;DHT22;38372;52.902;6.024;2023-01-28T13:04:17;6.50;99.90
52459;DHT22;38372;52.902;6.024;2023-01-28T13:07:01;6.40;99.90
52459;DHT22;38372;52.902;6.024;2023-01-28T13:09:29;6.40;99.90
52459;DHT22;38372;52.902;6.024;2023-01-28T13:11:58;6.40;99.90
52459;DHT22;38372;52.902;6.024;2023-01-28T13:14:30;6.50;99.90
52459;DHT22;38372;52.902;6.024;2023-01-28T13:17:11;6.40;99.90
52459;DHT22;38372;52.902;6.024;2023-01-28T13:19:39;6.40;99.90
52459;DHT22;38372;52.902;6.024;2023-01-28T13:22:21;6.30;99.90
52459;DHT22;38372;52.902;6.024;2023-01-28T13:24:49;6.30;99.90
52459;DHT22;38372;52.902;6.024;2023-01-28T13:27:22;6.50;99.90
52459;DHT22;38372;52.902;6.024;2023-01-28T13:30:00;6.80;99.90
52459;DHT22;38372;52.902;6.024;2023-01-28T13:32:31;6.80;99.90
52459;DHT22;38372;52.902;6.024;2023-01-28T13:35:00;6.70;99.90
52459;DHT22;38372;52.902;6.024;2023-01-28T13:37:38;6.70;99.90
52459;DHT22;38372;52.902;6.024;2023-01-28T13:42:40;6.40;99.90
52459;DHT22;38372;52.902;6.024;2023-01-28T13:45:32;6.30;99.90
52459;DHT22;38372;52.902;6.024;2023-01-28T13:48:26;6.20;99.90
52459;DHT22;38372;52.902;6.024;2023-01-28T13:50:54;6.10;99.90
52459;DHT22;38372;52.902;6.024;2023-01-28T13:53:39;6.00;99.90
52459;DHT22;38372;52.902;6.024;2023-01-28T13:56:15;5.90;99.90
52459;DHT22;38372;52.902;6.024;2023-01-28T13:59:05;5.80;99.90
52459;DHT22;38372;52.902;6.024;2023-01-28T14:10:04;5.80;99.90
52459;DHT22;38372;52.902;6.024;2023-01-28T14:15:29;5.90;99.90
52459;DHT22;38372;52.902;6.024;2023-01-28T14:17:58;5.90;99.90
52459;DHT22;38372;52.902;6.024;2023-01-28T14:20:43;5.90;99.90
52459;DHT22;38372;52.902;6.024;2023-01-28T14:23:20;5.80;99.90
52459;DHT22;38372;52.902;6.024;2023-01-28T14:31:27;5.90;99.90
52459;DHT22;38372;52.902;6.024;2023-01-28T14:34:05;5.80;99.90
52459;DHT22;38372;52.902;6.024;2023-01-28T14:36:43;5.80;99.90
52459;DHT22;38372;52.902;6.024;2023-01-28T14:39:24;5.70;99.90
52459;DHT22;38372;52.902;6.024;2023-01-28T14:41:52;5.70;99.90
52459;DHT22;38372;52.902;6.024;2023-01-28T14:47:35;5.60;99.90
52459;DHT22;38372;52.902;6.024;2023-01-28T14:51:21;5.70;99.90
52459;DHT22;38372;52.902;6.024;2023-01-28T14:58:43;5.60;99.90
52459;DHT22;38372;52.902;6.024;2023-01-28T15:01:22;5.60;99.90
52459;DHT22;38372;52.902;6.024;2023-01-28T15:03:48;5.60;99.90
52459;DHT22;38372;52.902;6.024;2023-01-28T15:06:20;5.60;99.90
52459;DHT22;38372;52.902;6.024;2023-01-28T15:08:51;5.60;99.90
52459;DHT22;38372;52.902;6.024;2023-01-28T15:11:22;5.50;99.90
52459;DHT22;38372;52.902;6.024;2023-01-28T15:13:56;5.50;99.90
52459;DHT22;38372;52.902;6.024;2023-01-28T15:16:26;5.50;99.90
52459;DHT22;38372;52.902;6.024;2023-01-28T15:18:59;5.40;99.90
52459;DHT22;38372;52.902;6.024;2023-01-28T15:21:27;5.30;99.90
52459;DHT22;38372;52.902;6.024;2023-01-28T15:23:59;5.30;99.90
52459;DHT22;38372;52.902;6.024;2023-01-28T15:26:27;5.20;99.90
52459;DHT22;38372;52.902;6.024;2023-01-28T15:28:54;5.20;99.90
52459;DHT22;38372;52.902;6.024;2023-01-28T15:34:11;5.10;99.90
52459;DHT22;38372;52.902;6.024;2023-01-28T15:36:37;5.10;99.90
52459;DHT22;38372;52.902;6.024;2023-01-28T15:39:03;5.10;99.90
52459;DHT22;38372;52.902;6.024;2023-01-28T15:41:33;5.00;99.90
52459;DHT22;38372;52.902;6.024;2023-01-28T15:44:00;5.00;99.90
52459;DHT22;38372;52.902;6.024;2023-01-28T15:46:27;5.00;99.90
52459;DHT22;38372;52.902;6.024;2023-01-28T15:49:03;5.00;99.90
52459;DHT22;38372;52.902;6.024;2023-01-28T15:51:30;5.00;99.90
52459;DHT22;38372;52.902;6.024;2023-01-28T15:54:08;5.00;99.90
52459;DHT22;38372;52.902;6.024;2023-01-28T15:56:35;5.00;99.90
52459;DHT22;38372;52.902;6.024;2023-01-28T15:59:21;5.00;99.90
52459;DHT22;38372;52.902;6.024;2023-01-28T16:01:48;4.90;99.90
52459;DHT22;38372;52.902;6.024;2023-01-28T16:04:26;4.90;99.90
52459;DHT22;38372;52.902;6.024;2023-01-28T16:06:53;4.90;99.90
52459;DHT22;38372;52.902;6.024;2023-01-28T16:09:26;4.90;99.90
52459;DHT22;38372;52.902;6.024;2023-01-28T16:11:59;4.80;99.90
52459;DHT22;38372;52.902;6.024;2023-01-28T16:14:50;4.80;99.90
52459;DHT22;38372;52.902;6.024;2023-01-28T16:17:22;4.70;99.90
52459;DHT22;38372;52.902;6.024;2023-01-28T16:20:20;4.70;99.90
52459;DHT22;38372;52.902;6.024;2023-01-28T16:22:46;4.70;99.90
52459;DHT22;38372;52.902;6.024;2023-01-28T16:27:50;4.70;99.90
52459;DHT22;38372;52.902;6.024;2023-01-28T16:30:16;4.70;99.90
52459;DHT22;38372;52.902;6.024;2023-01-28T16:32:42;4.70;99.90
52459;DHT22;38372;52.902;6.024;2023-01-28T16:35:14;4.60;99.90
52459;DHT22;38372;52.902;6.024;2023-01-28T16:37:40;4.70;99.90
52459;DHT22;38372;52.902;6.024;2023-01-28T16:40:07;4.60;99.90
52459;DHT22;38372;52.902;6.024;2023-01-28T16:42:33;4.60;99.90
52459;DHT22;38372;52.902;6.024;2023-01-28T16:44:59;4.60;99.90
52459;DHT22;38372;52.902;6.024;2023-01-28T16:47:25;4.60;99.90
52459;DHT22;38372;52.902;6.024;2023-01-28T16:49:51;4.60;99.90
52459;DHT22;38372;52.902;6.024;2023-01-28T16:52:16;4.60;99.90
52459;DHT22;38372;52.902;6.024;2023-01-28T16:54:43;4.60;99.90
52459;DHT22;38372;52.902;6.024;2023-01-28T16:57:17;4.50;99.90
52459;DHT22;38372;52.902;6.024;2023-01-28T16:59:44;4.40;99.90
52459;DHT22;38372;52.902;6.024;2023-01-28T17:02:12;4.40;99.90
52459;DHT22;38372;52.902;6.024;2023-01-28T17:04:38;4.40;99.90
52459;DHT22;38372;52.902;6.024;2023-01-28T17:07:04;4.40;99.90
52459;DHT22;38372;52.902;6.024;2023-01-28T17:09:30;4.30;99.90
52459;DHT22;38372;52.902;6.024;2023-01-28T17:11:57;4.30;99.90
52459;DHT22;38372;52.902;6.024;2023-01-28T17:14:23;4.30;99.90
52459;DHT22;38372;52.902;6.024;2023-01-28T17:16:49;4.30;99.90
52459;DHT22;38372;52.902;6.024;2023-01-28T17:19:16;4.30;99.90
52459;DHT22;38372;52.902;6.024;2023-01-28T17:21:42;4.30;99.90
52459;DHT22;38372;52.902;6.024;2023-01-28T17:24:08;4.40;99.90
52459;DHT22;38372;52.902;6.024;2023-01-28T17:26:33;4.30;99.90
52459;DHT22;38372;52.902;6.024;2023-01-28T17:29:02;4.30;99.90
52459;DHT22;38372;52.902;6.024;2023-01-28T17:31:29;4.30;99.90
52459;DHT22;38372;52.902;6.024;2023-01-28T17:33:56;4.30;99.90
52459;DHT22;38372;52.902;6.024;2023-01-28T17:36:23;4.30;99.90
52459;DHT22;38372;52.902;6.024;2023-01-28T17:38:50;4.30;99.90
52459;DHT22;38372;52.902;6.024;2023-01-28T17:41:16;4.40;99.90
52459;DHT22;38372;52.902;6.024;2023-01-28T17:43:43;4.30;99.90
52459;DHT22;38372;52.902;6.024;2023-01-28T17:46:10;4.40;99.90